Fidato — PB5970 — position and weather

sailwx.info

Track history (hours):
 
Tides and Currents Weather Stations Pressure Air Temp Water Temp Dewpoint Dewpoint Depression Visibility Wind Speed Wind Dir Waves Ship Positions

Fidato

Last reported at 2015-Sep-03 18:09 UTC. Time now 2015-Sep-03 21:34 UTC.
Position N 49°01' E 008°18'.

Length 135 m; draft 2.5 m.

Type: Ship. MMSI: 244670975.

Date/timePositionNaut miles runAvg speedWind from/ knotsBaromVisibWave heightAir tempDewpointWater temp
2015-Sep-03 18:09N 49°01' E 008°18'0 0.0
2015-Sep-03 17:33N 49°01' E 008°18'0 0.2
2015-Sep-03 16:24N 49°01' E 008°19'0 0.0
2015-Sep-03 15:33N 49°01' E 008°19'0 0.0
2015-Sep-03 14:34N 49°01' E 008°19'0 0.0
2015-Sep-03 13:33N 49°01' E 008°19'0 0.0
2015-Sep-03 12:34N 49°01' E 008°19'0 0.2
2015-Sep-03 11:33N 49°01' E 008°18'3 3.1
2015-Sep-03 10:34N 49°04' E 008°19'4 4.0
2015-Sep-03 09:33N 49°08' E 008°22'4 3.6
2015-Sep-03 08:33N 49°11' E 008°23'4 4.0
2015-Sep-03 07:33N 49°15' E 008°25'4 4.3
2015-Sep-03 06:33N 49°18' E 008°29'4 3.5
2015-Sep-03 05:31N 49°22' E 008°30'106 2.3
2015-Sep-01 07:11N 50°50' E 006°59'4 4.6
2015-Sep-01 06:24N 50°53' E 007°03'4 4.2
2015-Sep-01 05:25N 50°56' E 006°58'11 0.9
2015-Aug-31 18:04N 51°06' E 006°52'2 3.7
2015-Aug-31 17:33N 51°07' E 006°51'2 2.5
2015-Aug-31 16:34N 51°09' E 006°48'4 4.0
2015-Aug-31 15:34N 51°12' E 006°44'4 2.9
2015-Aug-31 14:20N 51°15' E 006°45'35 3.8
2015-Aug-31 05:03N 51°47' E 006°19'10 6.0
2015-Aug-31 03:26N 51°51' E 006°05'15 1.7
2015-Aug-30 18:30N 51°54' E 005°42'6 6.2
2015-Aug-30 17:33N 51°54' E 005°32'6 5.8
2015-Aug-30 16:33N 51°50' E 005°24'5 5.1
2015-Aug-30 15:34N 51°49' E 005°16'7 6.7
2015-Aug-30 14:34N 51°50' E 005°05'4 4.5
2015-Aug-30 13:33N 51°50' E 004°58'4 3.5
2015-Aug-30 12:33N 51°49' E 004°53'7 7.5
2015-Aug-30 11:33N 51°49' E 004°40'6 6.5
2015-Aug-30 10:34N 51°50' E 004°30'7 6.9
2015-Aug-30 09:33N 51°52' E 004°19'8 7.6
2015-Aug-30 08:34N 51°56' E 004°09'4 4.0
2015-Aug-30 07:33N 51°56' E 004°02'0 0.0
2015-Aug-30 06:34N 51°56' E 004°02'0 0.3
2015-Aug-30 05:34N 51°56' E 004°02'0 0.0
2015-Aug-30 04:33N 51°56' E 004°02'0 0.0
2015-Aug-30 03:33N 51°56' E 004°02'0 0.0
2015-Aug-30 02:34N 51°56' E 004°02'0 0.0
2015-Aug-30 01:34N 51°56' E 004°02'0 0.0
2015-Aug-30 00:33N 51°56' E 004°02'0 0.0
2015-Aug-29 23:34N 51°56' E 004°02'1 0.6
2015-Aug-29 22:33N 51°56' E 004°03'10 9.5
2015-Aug-29 21:33N 51°52' E 004°17'1010.3
2015-Aug-29 20:34N 51°50' E 004°33'4 4.1
2015-Aug-29 19:34N 51°49' E 004°39'0 0.0
2015-Aug-29 18:34N 51°49' E 004°39'0 0.0
2015-Aug-29 17:34N 51°49' E 004°39'0 0.0
2015-Aug-29 16:34N 51°49' E 004°39'0 0.0
2015-Aug-29 15:33N 51°49' E 004°39'0 0.0
2015-Aug-29 14:33N 51°49' E 004°39'0 0.0
2015-Aug-29 13:34N 51°49' E 004°39'0 0.0
2015-Aug-29 12:34N 51°49' E 004°39'0 0.0
2015-Aug-29 11:33N 51°49' E 004°39'0 0.0
2015-Aug-29 10:33N 51°49' E 004°39'0 0.0
2015-Aug-29 09:33N 51°49' E 004°39'0 0.0
2015-Aug-29 08:33N 51°49' E 004°39'0 0.0
2015-Aug-29 07:33N 51°49' E 004°39'4 3.7
2015-Aug-29 06:33N 51°45' E 004°38'7 7.4
2015-Aug-29 05:33N 51°42' E 004°27'5 5.3
2015-Aug-29 04:33N 51°39' E 004°20'0 0.2
2015-Aug-29 03:33N 51°39' E 004°19'0 0.0
2015-Aug-29 02:33N 51°39' E 004°19'0 0.0
2015-Aug-29 01:32N 51°39' E 004°19'0 0.0
2015-Aug-29 00:34N 51°39' E 004°19'0 0.0
2015-Aug-28 23:33N 51°39' E 004°19'12 3.9
2015-Aug-28 20:27N 51°36' E 004°01'6 6.6
2015-Aug-28 19:33N 51°30' E 004°00'5 5.4
2015-Aug-28 18:33N 51°25' E 003°58'7 6.7
2015-Aug-28 17:33N 51°21' E 003°50'1 1.0
2015-Aug-28 16:29N 51°20' E 003°49'6 7.0
2015-Aug-28 15:34N 51°13' E 003°48'3 3.4
2015-Aug-28 14:33N 51°10' E 003°47'0 0.0
2015-Aug-28 13:33N 51°10' E 003°47'0 0.0
2015-Aug-28 12:33N 51°10' E 003°47'0 0.0
2015-Aug-28 11:33N 51°10' E 003°47'0 0.0
2015-Aug-28 10:33N 51°10' E 003°47'0 0.0
2015-Aug-28 09:33N 51°10' E 003°47'0 0.0
2015-Aug-28 08:33N 51°10' E 003°47'0 0.0
2015-Aug-28 07:33N 51°10' E 003°47'0 0.0
2015-Aug-28 06:33N 51°10' E 003°47'0 0.0
2015-Aug-28 05:33N 51°10' E 003°47'0 0.0
2015-Aug-28 04:33N 51°10' E 003°47'0 0.0
2015-Aug-28 03:33N 51°10' E 003°47'0 0.0
2015-Aug-28 02:33N 51°10' E 003°47'0 0.0
2015-Aug-28 01:33N 51°10' E 003°47'0 0.0
2015-Aug-28 00:33N 51°10' E 003°47'0 0.0
2015-Aug-27 23:33N 51°10' E 003°47'0 0.0
2015-Aug-27 22:33N 51°10' E 003°47'0 0.0
2015-Aug-27 21:34N 51°10' E 003°47'0 0.0
2015-Aug-27 20:33N 51°10' E 003°47'0 0.0
2015-Aug-27 19:33N 51°10' E 003°47'0 0.0
2015-Aug-27 18:33N 51°10' E 003°47'0 0.0
2015-Aug-27 17:33N 51°10' E 003°47'2 2.4
2015-Aug-27 16:32N 51°12' E 003°48'7 6.6
2015-Aug-27 15:27N 51°19' E 003°50'2 1.8
2015-Aug-27 14:33N 51°21' E 003°50'9 8.7
2015-Aug-27 13:33N 51°25' E 004°02'7 7.3
2015-Aug-27 12:33N 51°22' E 004°13'3 2.8
2015-Aug-27 11:32N 51°21' E 004°17'1 0.7
2015-Aug-27 10:33N 51°21' E 004°18'0 0.4
2015-Aug-27 09:31N 51°22' E 004°17'0 0.0
2015-Aug-27 08:31N 51°22' E 004°17'0 0.0
2015-Aug-27 07:29N 51°22' E 004°17'0 0.0
2015-Aug-27 06:32N 51°22' E 004°17'0 0.0
2015-Aug-27 05:33N 51°22' E 004°17'0 0.0
2015-Aug-27 04:28N 51°22' E 004°17'0 0.0
2015-Aug-27 03:30N 51°22' E 004°17'0 0.0
2015-Aug-27 02:31N 51°22' E 004°17'0 0.0
2015-Aug-27 01:33N 51°22' E 004°17'0 0.0
2015-Aug-27 00:32N 51°22' E 004°17'0 0.0
2015-Aug-26 23:33N 51°22' E 004°17'0 0.0
2015-Aug-26 22:33N 51°22' E 004°17'0 0.0
2015-Aug-26 21:16N 51°22' E 004°17'0 0.0
2015-Aug-26 20:31N 51°22' E 004°17'0 0.0
2015-Aug-26 19:25N 51°22' E 004°17'0 0.0
2015-Aug-26 18:21N 51°22' E 004°17'0 0.0
2015-Aug-26 17:32N 51°22' E 004°17'0 0.0
2015-Aug-26 16:33N 51°22' E 004°17'0 0.0
2015-Aug-26 15:33N 51°22' E 004°17'0 0.0
2015-Aug-26 14:24N 51°22' E 004°17'0 0.0
2015-Aug-26 13:27N 51°22' E 004°17'0 0.0
2015-Aug-26 12:28N 51°22' E 004°17'0 0.0
2015-Aug-26 11:31N 51°22' E 004°17'0 0.0
2015-Aug-26 10:28N 51°22' E 004°17'0 0.0
2015-Aug-26 09:33N 51°22' E 004°17'0 0.0
2015-Aug-26 08:27N 51°22' E 004°17'0 0.0
2015-Aug-26 07:24N 51°22' E 004°17'0 0.1
2015-Aug-26 05:32N 51°22' E 004°17'0 0.0
2015-Aug-26 04:31N 51°22' E 004°17'0 0.0
2015-Aug-26 03:33N 51°22' E 004°17'0 0.0
2015-Aug-26 02:33N 51°22' E 004°17'0 0.0
2015-Aug-26 01:33N 51°22' E 004°17'0 0.0
2015-Aug-26 00:33N 51°22' E 004°17'0 0.0
2015-Aug-25 23:33N 51°22' E 004°17'0 0.0
2015-Aug-25 22:27N 51°22' E 004°17'0 0.0
2015-Aug-25 21:30N 51°22' E 004°17'0 0.0
2015-Aug-25 20:23N 51°22' E 004°17'0 0.0
2015-Aug-25 19:33N 51°22' E 004°17'0 0.0
2015-Aug-25 18:28N 51°22' E 004°17'0 0.0
2015-Aug-25 17:32N 51°22' E 004°17'0 0.0
2015-Aug-25 16:22N 51°22' E 004°17'5 5.6
2015-Aug-25 15:33N 51°17' E 004°20'4 3.7
2015-Aug-25 14:33N 51°15' E 004°24'1 0.7
2015-Aug-25 13:33N 51°15' E 004°25'0 0.1
2015-Aug-25 12:33N 51°15' E 004°24'0 0.0
2015-Aug-25 11:33N 51°15' E 004°24'0 0.0
2015-Aug-25 10:33N 51°15' E 004°24'0 0.0
2015-Aug-25 09:33N 51°15' E 004°24'0 0.0
2015-Aug-25 08:33N 51°15' E 004°24'0 0.0
2015-Aug-25 07:33N 51°15' E 004°24'0 0.2
2015-Aug-25 06:33N 51°15' E 004°25'0 0.0
2015-Aug-25 05:33N 51°15' E 004°25'0 0.0
2015-Aug-25 04:33N 51°15' E 004°25'0 0.0
2015-Aug-25 03:33N 51°15' E 004°25'0 0.0
2015-Aug-25 02:33N 51°15' E 004°25'0 0.0
2015-Aug-25 01:33N 51°15' E 004°25'0 0.0
2015-Aug-25 00:33N 51°15' E 004°25'0 0.0
2015-Aug-24 23:33N 51°15' E 004°25'0 0.0
2015-Aug-24 22:33N 51°15' E 004°25'0 0.0
2015-Aug-24 21:33N 51°15' E 004°25'0 0.0
2015-Aug-24 20:33N 51°15' E 004°25'0 0.0
2015-Aug-24 19:33N 51°15' E 004°25'0 0.0
2015-Aug-24 18:33N 51°15' E 004°25'  
Track history (hours):
 
Tides and Currents Weather Stations Pressure Air Temp Water Temp Dewpoint Dewpoint Depression Visibility Wind Speed Wind Dir Waves Ship Positions

Fidato

Last reported at 2015-Sep-03 18:09 UTC. Time now 2015-Sep-03 21:34 UTC.
Position N 49°01' E 008°18'.

Length 135 m; draft 2.5 m.

Type: Ship. MMSI: 244670975.

Date/timePositionNaut miles runAvg speedWind from/ knotsBaromVisibWave heightAir tempDewpointWater temp
2015-Sep-03 18:09N 49°01' E 008°18'0 0.0
2015-Sep-03 17:33N 49°01' E 008°18'0 0.2
2015-Sep-03 16:24N 49°01' E 008°19'0 0.0
2015-Sep-03 15:33N 49°01' E 008°19'0 0.0
2015-Sep-03 14:34N 49°01' E 008°19'0 0.0
2015-Sep-03 13:33N 49°01' E 008°19'0 0.0
2015-Sep-03 12:34N 49°01' E 008°19'0 0.2
2015-Sep-03 11:33N 49°01' E 008°18'3 3.1
2015-Sep-03 10:34N 49°04' E 008°19'4 4.0
2015-Sep-03 09:33N 49°08' E 008°22'4 3.6
2015-Sep-03 08:33N 49°11' E 008°23'4 4.0
2015-Sep-03 07:33N 49°15' E 008°25'4 4.3
2015-Sep-03 06:33N 49°18' E 008°29'4 3.5
2015-Sep-03 05:31N 49°22' E 008°30'106 2.3
2015-Sep-01 07:11N 50°50' E 006°59'4 4.6
2015-Sep-01 06:24N 50°53' E 007°03'4 4.2
2015-Sep-01 05:25N 50°56' E 006°58'11 0.9
2015-Aug-31 18:04N 51°06' E 006°52'2 3.7
2015-Aug-31 17:33N 51°07' E 006°51'2 2.5
2015-Aug-31 16:34N 51°09' E 006°48'4 4.0
2015-Aug-31 15:34N 51°12' E 006°44'4 2.9
2015-Aug-31 14:20N 51°15' E 006°45'35 3.8
2015-Aug-31 05:03N 51°47' E 006°19'10 6.0
2015-Aug-31 03:26N 51°51' E 006°05'15 1.7
2015-Aug-30 18:30N 51°54' E 005°42'6 6.2
2015-Aug-30 17:33N 51°54' E 005°32'6 5.8
2015-Aug-30 16:33N 51°50' E 005°24'5 5.1
2015-Aug-30 15:34N 51°49' E 005°16'7 6.7
2015-Aug-30 14:34N 51°50' E 005°05'4 4.5
2015-Aug-30 13:33N 51°50' E 004°58'4 3.5
2015-Aug-30 12:33N 51°49' E 004°53'7 7.5
2015-Aug-30 11:33N 51°49' E 004°40'6 6.5
2015-Aug-30 10:34N 51°50' E 004°30'7 6.9
2015-Aug-30 09:33N 51°52' E 004°19'8 7.6
2015-Aug-30 08:34N 51°56' E 004°09'4 4.0
2015-Aug-30 07:33N 51°56' E 004°02'0 0.0
2015-Aug-30 06:34N 51°56' E 004°02'0 0.3
2015-Aug-30 05:34N 51°56' E 004°02'0 0.0
2015-Aug-30 04:33N 51°56' E 004°02'0 0.0
2015-Aug-30 03:33N 51°56' E 004°02'0 0.0
2015-Aug-30 02:34N 51°56' E 004°02'0 0.0
2015-Aug-30 01:34N 51°56' E 004°02'0 0.0
2015-Aug-30 00:33N 51°56' E 004°02'0 0.0
2015-Aug-29 23:34N 51°56' E 004°02'1 0.6
2015-Aug-29 22:33N 51°56' E 004°03'10 9.5
2015-Aug-29 21:33N 51°52' E 004°17'1010.3
2015-Aug-29 20:34N 51°50' E 004°33'4 4.1
2015-Aug-29 19:34N 51°49' E 004°39'0 0.0
2015-Aug-29 18:34N 51°49' E 004°39'0 0.0
2015-Aug-29 17:34N 51°49' E 004°39'0 0.0
2015-Aug-29 16:34N 51°49' E 004°39'0 0.0
2015-Aug-29 15:33N 51°49' E 004°39'0 0.0
2015-Aug-29 14:33N 51°49' E 004°39'0 0.0
2015-Aug-29 13:34N 51°49' E 004°39'0 0.0
2015-Aug-29 12:34N 51°49' E 004°39'0 0.0
2015-Aug-29 11:33N 51°49' E 004°39'0 0.0
2015-Aug-29 10:33N 51°49' E 004°39'0 0.0
2015-Aug-29 09:33N 51°49' E 004°39'0 0.0
2015-Aug-29 08:33N 51°49' E 004°39'0 0.0
2015-Aug-29 07:33N 51°49' E 004°39'4 3.7
2015-Aug-29 06:33N 51°45' E 004°38'7 7.4
2015-Aug-29 05:33N 51°42' E 004°27'5 5.3
2015-Aug-29 04:33N 51°39' E 004°20'0 0.2
2015-Aug-29 03:33N 51°39' E 004°19'0 0.0
2015-Aug-29 02:33N 51°39' E 004°19'0 0.0
2015-Aug-29 01:32N 51°39' E 004°19'0 0.0
2015-Aug-29 00:34N 51°39' E 004°19'0 0.0
2015-Aug-28 23:33N 51°39' E 004°19'12 3.9
2015-Aug-28 20:27N 51°36' E 004°01'6 6.6
2015-Aug-28 19:33N 51°30' E 004°00'5 5.4
2015-Aug-28 18:33N 51°25' E 003°58'7 6.7
2015-Aug-28 17:33N 51°21' E 003°50'1 1.0
2015-Aug-28 16:29N 51°20' E 003°49'6 7.0
2015-Aug-28 15:34N 51°13' E 003°48'3 3.4
2015-Aug-28 14:33N 51°10' E 003°47'0 0.0
2015-Aug-28 13:33N 51°10' E 003°47'0 0.0
2015-Aug-28 12:33N 51°10' E 003°47'0 0.0
2015-Aug-28 11:33N 51°10' E 003°47'0 0.0
2015-Aug-28 10:33N 51°10' E 003°47'0 0.0
2015-Aug-28 09:33N 51°10' E 003°47'0 0.0
2015-Aug-28 08:33N 51°10' E 003°47'0 0.0
2015-Aug-28 07:33N 51°10' E 003°47'0 0.0
2015-Aug-28 06:33N 51°10' E 003°47'0 0.0
2015-Aug-28 05:33N 51°10' E 003°47'0 0.0
2015-Aug-28 04:33N 51°10' E 003°47'0 0.0
2015-Aug-28 03:33N 51°10' E 003°47'0 0.0
2015-Aug-28 02:33N 51°10' E 003°47'0 0.0
2015-Aug-28 01:33N 51°10' E 003°47'0 0.0
2015-Aug-28 00:33N 51°10' E 003°47'0 0.0
2015-Aug-27 23:33N 51°10' E 003°47'0 0.0
2015-Aug-27 22:33N 51°10' E 003°47'0 0.0
2015-Aug-27 21:34N 51°10' E 003°47'0 0.0
2015-Aug-27 20:33N 51°10' E 003°47'0 0.0
2015-Aug-27 19:33N 51°10' E 003°47'0 0.0
2015-Aug-27 18:33N 51°10' E 003°47'0 0.0
2015-Aug-27 17:33N 51°10' E 003°47'2 2.4
2015-Aug-27 16:32N 51°12' E 003°48'7 6.6
2015-Aug-27 15:27N 51°19' E 003°50'2 1.8
2015-Aug-27 14:33N 51°21' E 003°50'9 8.7
2015-Aug-27 13:33N 51°25' E 004°02'7 7.3
2015-Aug-27 12:33N 51°22' E 004°13'3 2.8
2015-Aug-27 11:32N 51°21' E 004°17'1 0.7
2015-Aug-27 10:33N 51°21' E 004°18'0 0.4
2015-Aug-27 09:31N 51°22' E 004°17'0 0.0
2015-Aug-27 08:31N 51°22' E 004°17'0 0.0
2015-Aug-27 07:29N 51°22' E 004°17'0 0.0
2015-Aug-27 06:32N 51°22' E 004°17'0 0.0
2015-Aug-27 05:33N 51°22' E 004°17'0 0.0
2015-Aug-27 04:28N 51°22' E 004°17'0 0.0
2015-Aug-27 03:30N 51°22' E 004°17'0 0.0
2015-Aug-27 02:31N 51°22' E 004°17'0 0.0
2015-Aug-27 01:33N 51°22' E 004°17'0 0.0
2015-Aug-27 00:32N 51°22' E 004°17'0 0.0
2015-Aug-26 23:33N 51°22' E 004°17'0 0.0
2015-Aug-26 22:33N 51°22' E 004°17'0 0.0
2015-Aug-26 21:16N 51°22' E 004°17'0 0.0
2015-Aug-26 20:31N 51°22' E 004°17'0 0.0
2015-Aug-26 19:25N 51°22' E 004°17'0 0.0
2015-Aug-26 18:21N 51°22' E 004°17'0 0.0
2015-Aug-26 17:32N 51°22' E 004°17'0 0.0
2015-Aug-26 16:33N 51°22' E 004°17'0 0.0
2015-Aug-26 15:33N 51°22' E 004°17'0 0.0
2015-Aug-26 14:24N 51°22' E 004°17'0 0.0
2015-Aug-26 13:27N 51°22' E 004°17'0 0.0
2015-Aug-26 12:28N 51°22' E 004°17'0 0.0
2015-Aug-26 11:31N 51°22' E 004°17'0 0.0
2015-Aug-26 10:28N 51°22' E 004°17'0 0.0
2015-Aug-26 09:33N 51°22' E 004°17'0 0.0
2015-Aug-26 08:27N 51°22' E 004°17'0 0.0
2015-Aug-26 07:24N 51°22' E 004°17'0 0.1
2015-Aug-26 05:32N 51°22' E 004°17'0 0.0
2015-Aug-26 04:31N 51°22' E 004°17'0 0.0
2015-Aug-26 03:33N 51°22' E 004°17'0 0.0
2015-Aug-26 02:33N 51°22' E 004°17'0 0.0
2015-Aug-26 01:33N 51°22' E 004°17'0 0.0
2015-Aug-26 00:33N 51°22' E 004°17'0 0.0
2015-Aug-25 23:33N 51°22' E 004°17'0 0.0
2015-Aug-25 22:27N 51°22' E 004°17'0 0.0
2015-Aug-25 21:30N 51°22' E 004°17'0 0.0
2015-Aug-25 20:23N 51°22' E 004°17'0 0.0
2015-Aug-25 19:33N 51°22' E 004°17'0 0.0
2015-Aug-25 18:28N 51°22' E 004°17'0 0.0
2015-Aug-25 17:32N 51°22' E 004°17'0 0.0
2015-Aug-25 16:22N 51°22' E 004°17'5 5.6
2015-Aug-25 15:33N 51°17' E 004°20'4 3.7
2015-Aug-25 14:33N 51°15' E 004°24'1 0.7
2015-Aug-25 13:33N 51°15' E 004°25'0 0.1
2015-Aug-25 12:33N 51°15' E 004°24'0 0.0
2015-Aug-25 11:33N 51°15' E 004°24'0 0.0
2015-Aug-25 10:33N 51°15' E 004°24'0 0.0
2015-Aug-25 09:33N 51°15' E 004°24'0 0.0
2015-Aug-25 08:33N 51°15' E 004°24'0 0.0
2015-Aug-25 07:33N 51°15' E 004°24'0 0.2
2015-Aug-25 06:33N 51°15' E 004°25'0 0.0
2015-Aug-25 05:33N 51°15' E 004°25'0 0.0
2015-Aug-25 04:33N 51°15' E 004°25'0 0.0
2015-Aug-25 03:33N 51°15' E 004°25'0 0.0
2015-Aug-25 02:33N 51°15' E 004°25'0 0.0
2015-Aug-25 01:33N 51°15' E 004°25'0 0.0
2015-Aug-25 00:33N 51°15' E 004°25'0 0.0
2015-Aug-24 23:33N 51°15' E 004°25'0 0.0
2015-Aug-24 22:33N 51°15' E 004°25'0 0.0
2015-Aug-24 21:33N 51°15' E 004°25'0 0.0
2015-Aug-24 20:33N 51°15' E 004°25'0 0.0
2015-Aug-24 19:33N 51°15' E 004°25'0 0.0
2015-Aug-24 18:33N 51°15' E 004°25'  

Dump ship's entire track history